sensor_id;sensor_type;location;lat;lon;timestamp;P1;durP1;ratioP1;P2;durP2;ratioP2
20844;SDS011;10583;49.084;8.646;2022-08-01T00:01:44;2.35;;;2.35;;
20844;SDS011;10583;49.084;8.646;2022-08-01T00:04:11;1.90;;;1.90;;
20844;SDS011;10583;49.084;8.646;2022-08-01T00:06:38;2.00;;;2.00;;
20844;SDS011;10583;49.084;8.646;2022-08-01T00:09:04;2.10;;;2.10;;
20844;SDS011;10583;49.084;8.646;2022-08-01T00:11:31;2.22;;;2.22;;
20844;SDS011;10583;49.084;8.646;2022-08-01T00:13:58;2.53;;;2.53;;
20844;SDS011;10583;49.084;8.646;2022-08-01T00:16:24;2.00;;;2.00;;
20844;SDS011;10583;49.084;8.646;2022-08-01T00:18:53;2.05;;;2.05;;
20844;SDS011;10583;49.084;8.646;2022-08-01T00:21:20;2.00;;;2.00;;
20844;SDS011;10583;49.084;8.646;2022-08-01T00:23:47;2.38;;;2.38;;
20844;SDS011;10583;49.084;8.646;2022-08-01T00:26:13;2.40;;;2.40;;
20844;SDS011;10583;49.084;8.646;2022-08-01T00:28:40;2.15;;;2.15;;
20844;SDS011;10583;49.084;8.646;2022-08-01T00:31:07;2.30;;;2.30;;
20844;SDS011;10583;49.084;8.646;2022-08-01T00:33:34;2.30;;;2.30;;
20844;SDS011;10583;49.084;8.646;2022-08-01T00:36:02;2.08;;;2.08;;
20844;SDS011;10583;49.084;8.646;2022-08-01T00:38:29;1.90;;;1.90;;
20844;SDS011;10583;49.084;8.646;2022-08-01T00:40:56;2.00;;;2.00;;
20844;SDS011;10583;49.084;8.646;2022-08-01T00:43:23;2.00;;;2.00;;
20844;SDS011;10583;49.084;8.646;2022-08-01T00:45:50;2.20;;;2.20;;
20844;SDS011;10583;49.084;8.646;2022-08-01T00:48:16;2.20;;;2.20;;
20844;SDS011;10583;49.084;8.646;2022-08-01T00:50:43;2.10;;;2.10;;
20844;SDS011;10583;49.084;8.646;2022-08-01T00:53:13;2.67;;;2.67;;
20844;SDS011;10583;49.084;8.646;2022-08-01T00:55:40;1.98;;;1.98;;
20844;SDS011;10583;49.084;8.646;2022-08-01T00:58:06;2.10;;;2.10;;
20844;SDS011;10583;49.084;8.646;2022-08-01T01:00:34;2.30;;;2.30;;
20844;SDS011;10583;49.084;8.646;2022-08-01T01:03:01;2.10;;;2.10;;
20844;SDS011;10583;49.084;8.646;2022-08-01T01:05:28;2.40;;;2.40;;
20844;SDS011;10583;49.084;8.646;2022-08-01T01:07:58;2.00;;;2.00;;
20844;SDS011;10583;49.084;8.646;2022-08-01T01:10:31;1.88;;;1.88;;
20844;SDS011;10583;49.084;8.646;2022-08-01T01:13:04;2.20;;;2.20;;
20844;SDS011;10583;49.084;8.646;2022-08-01T01:15:34;2.22;;;2.22;;
20844;SDS011;10583;49.084;8.646;2022-08-01T01:18:07;2.33;;;2.33;;
20844;SDS011;10583;49.084;8.646;2022-08-01T01:20:37;2.33;;;2.33;;
20844;SDS011;10583;49.084;8.646;2022-08-01T01:23:12;2.17;;;2.17;;
20844;SDS011;10583;49.084;8.646;2022-08-01T01:25:54;2.15;;;2.15;;
20844;SDS011;10583;49.084;8.646;2022-08-01T01:28:40;2.10;;;2.10;;
20844;SDS011;10583;49.084;8.646;2022-08-01T01:31:27;2.10;;;2.10;;
20844;SDS011;10583;49.084;8.646;2022-08-01T01:33:57;2.30;;;2.30;;
20844;SDS011;10583;49.084;8.646;2022-08-01T01:36:25;2.28;;;2.28;;
20844;SDS011;10583;49.084;8.646;2022-08-01T01:38:54;2.10;;;2.10;;
20844;SDS011;10583;49.084;8.646;2022-08-01T01:41:22;2.10;;;2.10;;
20844;SDS011;10583;49.084;8.646;2022-08-01T01:43:49;2.30;;;2.30;;
20844;SDS011;10583;49.084;8.646;2022-08-01T01:46:21;2.30;;;2.30;;
20844;SDS011;10583;49.084;8.646;2022-08-01T01:48:52;2.20;;;2.20;;
20844;SDS011;10583;49.084;8.646;2022-08-01T01:51:21;1.95;;;1.95;;
20844;SDS011;10583;49.084;8.646;2022-08-01T01:53:50;2.20;;;2.20;;
20844;SDS011;10583;49.084;8.646;2022-08-01T01:56:19;1.88;;;1.88;;
20844;SDS011;10583;49.084;8.646;2022-08-01T01:58:48;2.15;;;2.15;;
20844;SDS011;10583;49.084;8.646;2022-08-01T02:01:18;2.40;;;2.40;;
20844;SDS011;10583;49.084;8.646;2022-08-01T02:03:51;2.20;;;2.20;;
20844;SDS011;10583;49.084;8.646;2022-08-01T02:06:21;2.30;;;2.30;;
20844;SDS011;10583;49.084;8.646;2022-08-01T02:08:49;2.00;;;2.00;;
20844;SDS011;10583;49.084;8.646;2022-08-01T02:11:18;2.08;;;2.08;;
20844;SDS011;10583;49.084;8.646;2022-08-01T02:13:46;2.15;;;2.15;;
20844;SDS011;10583;49.084;8.646;2022-08-01T02:16:19;2.20;;;2.20;;
20844;SDS011;10583;49.084;8.646;2022-08-01T02:18:48;2.10;;;2.10;;
20844;SDS011;10583;49.084;8.646;2022-08-01T02:21:16;2.13;;;2.13;;
20844;SDS011;10583;49.084;8.646;2022-08-01T02:23:48;2.13;;;2.13;;
20844;SDS011;10583;49.084;8.646;2022-08-01T02:26:16;1.90;;;1.90;;
20844;SDS011;10583;49.084;8.646;2022-08-01T02:28:45;2.38;;;2.38;;
20844;SDS011;10583;49.084;8.646;2022-08-01T02:31:17;2.22;;;2.22;;
20844;SDS011;10583;49.084;8.646;2022-08-01T02:33:49;2.15;;;2.15;;
20844;SDS011;10583;49.084;8.646;2022-08-01T02:36:25;2.63;;;2.63;;
20844;SDS011;10583;49.084;8.646;2022-08-01T02:38:54;2.22;;;2.22;;
20844;SDS011;10583;49.084;8.646;2022-08-01T02:41:23;2.35;;;2.35;;
20844;SDS011;10583;49.084;8.646;2022-08-01T02:43:52;2.30;;;2.30;;
20844;SDS011;10583;49.084;8.646;2022-08-01T02:46:24;2.60;;;2.60;;
20844;SDS011;10583;49.084;8.646;2022-08-01T02:48:54;2.60;;;2.60;;
20844;SDS011;10583;49.084;8.646;2022-08-01T02:51:24;2.70;;;2.70;;
20844;SDS011;10583;49.084;8.646;2022-08-01T02:53:51;2.67;;;2.67;;
20844;SDS011;10583;49.084;8.646;2022-08-01T02:56:19;2.80;;;2.80;;
20844;SDS011;10583;49.084;8.646;2022-08-01T02:58:48;2.80;;;2.80;;
20844;SDS011;10583;49.084;8.646;2022-08-01T03:01:17;2.53;;;2.53;;
20844;SDS011;10583;49.084;8.646;2022-08-01T03:03:46;2.27;;;2.27;;
20844;SDS011;10583;49.084;8.646;2022-08-01T03:06:14;2.60;;;2.60;;
20844;SDS011;10583;49.084;8.646;2022-08-01T03:08:41;2.47;;;2.47;;
20844;SDS011;10583;49.084;8.646;2022-08-01T03:11:10;2.60;;;2.60;;
20844;SDS011;10583;49.084;8.646;2022-08-01T03:13:38;2.57;;;2.57;;
20844;SDS011;10583;49.084;8.646;2022-08-01T03:16:07;2.60;;;2.60;;
20844;SDS011;10583;49.084;8.646;2022-08-01T03:18:35;2.70;;;2.70;;
20844;SDS011;10583;49.084;8.646;2022-08-01T03:21:05;2.60;;;2.60;;
20844;SDS011;10583;49.084;8.646;2022-08-01T03:23:34;2.70;;;2.70;;
20844;SDS011;10583;49.084;8.646;2022-08-01T03:26:02;2.90;;;2.90;;
20844;SDS011;10583;49.084;8.646;2022-08-01T03:28:30;2.27;;;2.27;;
20844;SDS011;10583;49.084;8.646;2022-08-01T03:30:58;2.50;;;2.50;;
20844;SDS011;10583;49.084;8.646;2022-08-01T03:33:26;2.63;;;2.63;;
20844;SDS011;10583;49.084;8.646;2022-08-01T03:35:53;2.50;;;2.50;;
20844;SDS011;10583;49.084;8.646;2022-08-01T03:38:22;2.60;;;2.60;;
20844;SDS011;10583;49.084;8.646;2022-08-01T03:40:51;2.70;;;2.70;;
20844;SDS011;10583;49.084;8.646;2022-08-01T03:43:21;2.47;;;2.47;;
20844;SDS011;10583;49.084;8.646;2022-08-01T03:45:53;2.97;;;2.97;;
20844;SDS011;10583;49.084;8.646;2022-08-01T03:48:22;2.90;;;2.90;;
20844;SDS011;10583;49.084;8.646;2022-08-01T03:50:55;3.10;;;3.10;;
20844;SDS011;10583;49.084;8.646;2022-08-01T03:53:26;2.90;;;2.90;;
20844;SDS011;10583;49.084;8.646;2022-08-01T03:55:56;2.80;;;2.80;;
20844;SDS011;10583;49.084;8.646;2022-08-01T03:58:25;3.03;;;3.03;;
20844;SDS011;10583;49.084;8.646;2022-08-01T04:00:53;2.70;;;2.70;;
20844;SDS011;10583;49.084;8.646;2022-08-01T04:03:21;2.80;;;2.80;;
20844;SDS011;10583;49.084;8.646;2022-08-01T04:05:48;2.83;;;2.83;;
20844;SDS011;10583;49.084;8.646;2022-08-01T04:08:15;2.93;;;2.93;;
20844;SDS011;10583;49.084;8.646;2022-08-01T04:10:43;2.80;;;2.80;;
20844;SDS011;10583;49.084;8.646;2022-08-01T04:13:10;2.90;;;2.90;;
20844;SDS011;10583;49.084;8.646;2022-08-01T04:15:37;2.77;;;2.77;;
20844;SDS011;10583;49.084;8.646;2022-08-01T04:18:04;2.73;;;2.73;;
20844;SDS011;10583;49.084;8.646;2022-08-01T04:20:31;2.67;;;2.67;;
20844;SDS011;10583;49.084;8.646;2022-08-01T04:22:58;2.77;;;2.77;;
20844;SDS011;10583;49.084;8.646;2022-08-01T04:25:26;3.17;;;3.17;;
20844;SDS011;10583;49.084;8.646;2022-08-01T04:27:59;2.90;;;2.90;;
20844;SDS011;10583;49.084;8.646;2022-08-01T04:30:29;2.67;;;2.67;;
20844;SDS011;10583;49.084;8.646;2022-08-01T04:32:59;2.60;;;2.60;;
20844;SDS011;10583;49.084;8.646;2022-08-01T04:35:27;2.50;;;2.50;;
20844;SDS011;10583;49.084;8.646;2022-08-01T04:37:55;2.90;;;2.90;;
20844;SDS011;10583;49.084;8.646;2022-08-01T04:40:24;2.67;;;2.67;;
20844;SDS011;10583;49.084;8.646;2022-08-01T04:42:52;3.00;;;3.00;;
20844;SDS011;10583;49.084;8.646;2022-08-01T04:45:20;2.70;;;2.70;;
20844;SDS011;10583;49.084;8.646;2022-08-01T04:47:47;2.53;;;2.53;;
20844;SDS011;10583;49.084;8.646;2022-08-01T04:50:15;2.97;;;2.97;;
20844;SDS011;10583;49.084;8.646;2022-08-01T04:52:45;2.70;;;2.70;;
20844;SDS011;10583;49.084;8.646;2022-08-01T04:55:11;3.03;;;3.03;;
20844;SDS011;10583;49.084;8.646;2022-08-01T04:57:39;2.53;;;2.53;;
20844;SDS011;10583;49.084;8.646;2022-08-01T05:00:08;2.60;;;2.60;;
20844;SDS011;10583;49.084;8.646;2022-08-01T05:02:37;2.50;;;2.50;;
20844;SDS011;10583;49.084;8.646;2022-08-01T05:05:04;2.67;;;2.67;;
20844;SDS011;10583;49.084;8.646;2022-08-01T05:07:31;3.07;;;3.07;;
20844;SDS011;10583;49.084;8.646;2022-08-01T05:10:01;2.73;;;2.73;;
20844;SDS011;10583;49.084;8.646;2022-08-01T05:12:28;2.90;;;2.90;;
20844;SDS011;10583;49.084;8.646;2022-08-01T05:14:56;2.43;;;2.43;;
20844;SDS011;10583;49.084;8.646;2022-08-01T05:17:23;2.67;;;2.67;;
20844;SDS011;10583;49.084;8.646;2022-08-01T05:19:51;2.33;;;2.33;;
20844;SDS011;10583;49.084;8.646;2022-08-01T05:22:18;2.80;;;2.80;;
20844;SDS011;10583;49.084;8.646;2022-08-01T05:24:44;2.90;;;2.90;;
20844;SDS011;10583;49.084;8.646;2022-08-01T05:27:12;2.30;;;2.30;;
20844;SDS011;10583;49.084;8.646;2022-08-01T05:29:38;2.47;;;2.47;;
20844;SDS011;10583;49.084;8.646;2022-08-01T05:32:06;2.80;;;2.80;;
20844;SDS011;10583;49.084;8.646;2022-08-01T05:34:32;2.50;;;2.50;;
20844;SDS011;10583;49.084;8.646;2022-08-01T05:37:00;2.47;;;2.47;;
20844;SDS011;10583;49.084;8.646;2022-08-01T05:39:28;2.20;;;2.20;;
20844;SDS011;10583;49.084;8.646;2022-08-01T05:41:54;2.60;;;2.60;;
20844;SDS011;10583;49.084;8.646;2022-08-01T05:44:21;2.22;;;2.22;;
20844;SDS011;10583;49.084;8.646;2022-08-01T05:46:48;2.35;;;2.35;;
20844;SDS011;10583;49.084;8.646;2022-08-01T05:49:15;2.15;;;2.15;;
20844;SDS011;10583;49.084;8.646;2022-08-01T05:51:41;2.47;;;2.47;;
20844;SDS011;10583;49.084;8.646;2022-08-01T05:54:10;2.40;;;2.40;;
20844;SDS011;10583;49.084;8.646;2022-08-01T05:56:36;2.50;;;2.50;;
20844;SDS011;10583;49.084;8.646;2022-08-01T05:59:03;2.05;;;2.05;;
20844;SDS011;10583;49.084;8.646;2022-08-01T06:01:30;2.45;;;2.45;;
20844;SDS011;10583;49.084;8.646;2022-08-01T06:03:57;2.30;;;2.30;;
20844;SDS011;10583;49.084;8.646;2022-08-01T06:06:23;2.20;;;2.20;;
20844;SDS011;10583;49.084;8.646;2022-08-01T06:08:50;2.40;;;2.40;;
20844;SDS011;10583;49.084;8.646;2022-08-01T06:11:19;2.25;;;2.25;;
20844;SDS011;10583;49.084;8.646;2022-08-01T06:13:45;2.10;;;2.10;;
20844;SDS011;10583;49.084;8.646;2022-08-01T06:16:12;2.55;;;2.55;;
20844;SDS011;10583;49.084;8.646;2022-08-01T06:18:38;2.30;;;2.30;;
20844;SDS011;10583;49.084;8.646;2022-08-01T06:21:05;2.25;;;2.25;;
20844;SDS011;10583;49.084;8.646;2022-08-01T06:23:32;2.50;;;2.50;;
20844;SDS011;10583;49.084;8.646;2022-08-01T06:25:58;2.03;;;2.03;;
20844;SDS011;10583;49.084;8.646;2022-08-01T06:28:27;2.30;;;2.30;;
20844;SDS011;10583;49.084;8.646;2022-08-01T06:30:54;2.00;;;2.00;;
20844;SDS011;10583;49.084;8.646;2022-08-01T06:33:21;2.00;;;2.00;;
20844;SDS011;10583;49.084;8.646;2022-08-01T06:35:47;2.15;;;2.15;;
20844;SDS011;10583;49.084;8.646;2022-08-01T06:38:14;2.05;;;2.05;;
20844;SDS011;10583;49.084;8.646;2022-08-01T06:40:41;2.03;;;2.03;;
20844;SDS011;10583;49.084;8.646;2022-08-01T06:43:07;1.90;;;1.90;;
20844;SDS011;10583;49.084;8.646;2022-08-01T06:45:37;2.25;;;2.25;;
20844;SDS011;10583;49.084;8.646;2022-08-01T06:48:04;1.98;;;1.98;;
20844;SDS011;10583;49.084;8.646;2022-08-01T06:50:31;2.20;;;2.20;;
20844;SDS011;10583;49.084;8.646;2022-08-01T06:52:58;2.15;;;2.15;;
20844;SDS011;10583;49.084;8.646;2022-08-01T06:55:24;2.25;;;2.25;;
20844;SDS011;10583;49.084;8.646;2022-08-01T06:57:52;1.60;;;1.60;;
20844;SDS011;10583;49.084;8.646;2022-08-01T07:00:19;1.73;;;1.73;;
20844;SDS011;10583;49.084;8.646;2022-08-01T07:02:49;1.50;;;1.50;;
20844;SDS011;10583;49.084;8.646;2022-08-01T07:05:16;1.50;;;1.50;;
20844;SDS011;10583;49.084;8.646;2022-08-01T07:07:46;1.63;;;1.63;;
20844;SDS011;10583;49.084;8.646;2022-08-01T07:10:13;1.67;;;1.67;;
20844;SDS011;10583;49.084;8.646;2022-08-01T07:12:39;1.95;;;1.95;;
20844;SDS011;10583;49.084;8.646;2022-08-01T07:15:06;1.85;;;1.85;;
20844;SDS011;10583;49.084;8.646;2022-08-01T07:17:36;1.85;;;1.85;;
20844;SDS011;10583;49.084;8.646;2022-08-01T07:20:07;1.65;;;1.65;;
20844;SDS011;10583;49.084;8.646;2022-08-01T07:22:34;1.50;;;1.50;;
20844;SDS011;10583;49.084;8.646;2022-08-01T07:25:01;1.48;;;1.48;;
20844;SDS011;10583;49.084;8.646;2022-08-01T07:27:29;1.65;;;1.65;;
20844;SDS011;10583;49.084;8.646;2022-08-01T07:29:56;1.40;;;1.40;;
20844;SDS011;10583;49.084;8.646;2022-08-01T07:32:23;1.30;;;1.30;;
20844;SDS011;10583;49.084;8.646;2022-08-01T07:34:50;1.60;;;1.60;;
20844;SDS011;10583;49.084;8.646;2022-08-01T07:37:18;1.40;;;1.40;;
20844;SDS011;10583;49.084;8.646;2022-08-01T07:39:45;1.00;;;1.00;;
20844;SDS011;10583;49.084;8.646;2022-08-01T07:42:12;0.90;;;0.90;;
20844;SDS011;10583;49.084;8.646;2022-08-01T07:44:39;1.02;;;1.02;;
20844;SDS011;10583;49.084;8.646;2022-08-01T07:47:06;1.02;;;1.02;;
20844;SDS011;10583;49.084;8.646;2022-08-01T07:49:33;1.60;;;1.60;;
20844;SDS011;10583;49.084;8.646;2022-08-01T07:52:00;1.40;;;1.40;;
20844;SDS011;10583;49.084;8.646;2022-08-01T07:54:28;1.35;;;1.35;;
20844;SDS011;10583;49.084;8.646;2022-08-01T07:56:54;1.45;;;1.45;;
20844;SDS011;10583;49.084;8.646;2022-08-01T07:59:21;1.20;;;1.20;;
20844;SDS011;10583;49.084;8.646;2022-08-01T08:01:48;1.27;;;1.27;;
20844;SDS011;10583;49.084;8.646;2022-08-01T08:04:15;1.27;;;1.27;;
20844;SDS011;10583;49.084;8.646;2022-08-01T08:06:42;1.00;;;1.00;;
20844;SDS011;10583;49.084;8.646;2022-08-01T08:09:09;0.90;;;0.90;;
20844;SDS011;10583;49.084;8.646;2022-08-01T08:11:37;0.80;;;0.80;;
20844;SDS011;10583;49.084;8.646;2022-08-01T08:14:04;0.82;;;0.82;;
20844;SDS011;10583;49.084;8.646;2022-08-01T08:16:31;0.70;;;0.70;;
20844;SDS011;10583;49.084;8.646;2022-08-01T08:18:57;0.80;;;0.80;;
20844;SDS011;10583;49.084;8.646;2022-08-01T08:21:24;1.02;;;1.02;;
20844;SDS011;10583;49.084;8.646;2022-08-01T08:23:51;0.90;;;0.90;;
20844;SDS011;10583;49.084;8.646;2022-08-01T08:26:35;0.98;;;0.98;;
20844;SDS011;10583;49.084;8.646;2022-08-01T08:29:04;0.70;;;0.70;;
20844;SDS011;10583;49.084;8.646;2022-08-01T08:31:30;0.82;;;0.82;;
20844;SDS011;10583;49.084;8.646;2022-08-01T08:33:57;0.70;;;0.70;;
20844;SDS011;10583;49.084;8.646;2022-08-01T08:36:24;0.95;;;0.95;;
20844;SDS011;10583;49.084;8.646;2022-08-01T08:38:51;1.10;;;1.10;;
20844;SDS011;10583;49.084;8.646;2022-08-01T08:41:17;1.10;;;1.10;;
20844;SDS011;10583;49.084;8.646;2022-08-01T08:43:44;0.80;;;0.80;;
20844;SDS011;10583;49.084;8.646;2022-08-01T08:46:12;1.10;;;1.10;;
20844;SDS011;10583;49.084;8.646;2022-08-01T08:48:41;1.20;;;1.20;;
20844;SDS011;10583;49.084;8.646;2022-08-01T08:51:08;1.10;;;1.10;;
20844;SDS011;10583;49.084;8.646;2022-08-01T08:53:36;0.90;;;0.90;;
20844;SDS011;10583;49.084;8.646;2022-08-01T08:56:08;1.00;;;1.00;;
20844;SDS011;10583;49.084;8.646;2022-08-01T08:58:37;1.10;;;1.10;;
20844;SDS011;10583;49.084;8.646;2022-08-01T09:01:04;1.17;;;1.17;;
20844;SDS011;10583;49.084;8.646;2022-08-01T09:03:32;1.20;;;1.20;;
20844;SDS011;10583;49.084;8.646;2022-08-01T09:06:00;1.15;;;1.15;;
20844;SDS011;10583;49.084;8.646;2022-08-01T09:08:27;1.35;;;1.35;;
20844;SDS011;10583;49.084;8.646;2022-08-01T09:10:53;1.17;;;1.17;;
20844;SDS011;10583;49.084;8.646;2022-08-01T09:13:20;1.20;;;1.20;;
20844;SDS011;10583;49.084;8.646;2022-08-01T09:15:48;1.40;;;1.40;;
20844;SDS011;10583;49.084;8.646;2022-08-01T09:18:28;1.30;;;1.30;;
20844;SDS011;10583;49.084;8.646;2022-08-01T09:23:45;1.50;;;1.50;;
20844;SDS011;10583;49.084;8.646;2022-08-01T09:26:14;1.40;;;1.40;;
20844;SDS011;10583;49.084;8.646;2022-08-01T09:28:44;1.25;;;1.25;;
20844;SDS011;10583;49.084;8.646;2022-08-01T09:31:13;1.30;;;1.30;;
20844;SDS011;10583;49.084;8.646;2022-08-01T09:33:48;1.38;;;1.38;;
20844;SDS011;10583;49.084;8.646;2022-08-01T09:36:17;1.50;;;1.50;;
20844;SDS011;10583;49.084;8.646;2022-08-01T09:38:44;1.30;;;1.30;;
20844;SDS011;10583;49.084;8.646;2022-08-01T09:41:11;1.20;;;1.20;;
20844;SDS011;10583;49.084;8.646;2022-08-01T09:43:38;1.35;;;1.35;;
20844;SDS011;10583;49.084;8.646;2022-08-01T09:46:05;1.48;;;1.48;;
20844;SDS011;10583;49.084;8.646;2022-08-01T09:48:36;1.27;;;1.27;;
20844;SDS011;10583;49.084;8.646;2022-08-01T09:51:04;1.30;;;1.30;;
20844;SDS011;10583;49.084;8.646;2022-08-01T09:53:44;1.60;;;1.60;;
20844;SDS011;10583;49.084;8.646;2022-08-01T09:56:12;1.40;;;1.40;;
20844;SDS011;10583;49.084;8.646;2022-08-01T09:58:48;1.48;;;1.48;;
20844;SDS011;10583;49.084;8.646;2022-08-01T10:01:16;1.40;;;1.40;;
20844;SDS011;10583;49.084;8.646;2022-08-01T10:03:44;1.80;;;1.80;;
20844;SDS011;10583;49.084;8.646;2022-08-01T10:06:20;1.60;;;1.60;;
20844;SDS011;10583;49.084;8.646;2022-08-01T10:08:49;1.70;;;1.70;;
20844;SDS011;10583;49.084;8.646;2022-08-01T10:11:16;1.60;;;1.60;;
20844;SDS011;10583;49.084;8.646;2022-08-01T10:13:44;1.38;;;1.38;;
20844;SDS011;10583;49.084;8.646;2022-08-01T10:16:11;1.45;;;1.45;;
20844;SDS011;10583;49.084;8.646;2022-08-01T10:18:39;1.27;;;1.27;;
20844;SDS011;10583;49.084;8.646;2022-08-01T10:21:07;1.80;;;1.80;;
20844;SDS011;10583;49.084;8.646;2022-08-01T10:23:35;1.23;;;1.23;;
20844;SDS011;10583;49.084;8.646;2022-08-01T10:26:05;1.70;;;1.70;;
20844;SDS011;10583;49.084;8.646;2022-08-01T10:28:34;1.15;;;1.15;;
20844;SDS011;10583;49.084;8.646;2022-08-01T10:31:02;1.00;;;1.00;;
20844;SDS011;10583;49.084;8.646;2022-08-01T10:33:29;1.40;;;1.40;;
20844;SDS011;10583;49.084;8.646;2022-08-01T10:35:56;1.30;;;1.30;;
20844;SDS011;10583;49.084;8.646;2022-08-01T10:38:24;1.20;;;1.20;;
20844;SDS011;10583;49.084;8.646;2022-08-01T10:40:50;1.45;;;1.45;;
20844;SDS011;10583;49.084;8.646;2022-08-01T10:43:20;1.70;;;1.70;;
20844;SDS011;10583;49.084;8.646;2022-08-01T10:45:47;1.40;;;1.40;;
20844;SDS011;10583;49.084;8.646;2022-08-01T10:48:16;1.20;;;1.20;;
20844;SDS011;10583;49.084;8.646;2022-08-01T10:50:47;1.40;;;1.40;;
20844;SDS011;10583;49.084;8.646;2022-08-01T10:53:16;1.20;;;1.20;;
20844;SDS011;10583;49.084;8.646;2022-08-01T10:55:45;1.40;;;1.40;;
20844;SDS011;10583;49.084;8.646;2022-08-01T10:58:13;1.27;;;1.27;;
20844;SDS011;10583;49.084;8.646;2022-08-01T11:00:41;1.30;;;1.30;;
20844;SDS011;10583;49.084;8.646;2022-08-01T11:03:09;1.20;;;1.20;;
20844;SDS011;10583;49.084;8.646;2022-08-01T11:05:36;1.30;;;1.30;;
20844;SDS011;10583;49.084;8.646;2022-08-01T11:08:03;1.27;;;1.27;;
20844;SDS011;10583;49.084;8.646;2022-08-01T11:10:37;1.00;;;1.00;;
20844;SDS011;10583;49.084;8.646;2022-08-01T11:13:04;1.20;;;1.20;;
20844;SDS011;10583;49.084;8.646;2022-08-01T11:15:33;1.25;;;1.25;;
20844;SDS011;10583;49.084;8.646;2022-08-01T11:18:02;1.08;;;1.08;;
20844;SDS011;10583;49.084;8.646;2022-08-01T11:20:31;0.90;;;0.90;;
20844;SDS011;10583;49.084;8.646;2022-08-01T11:26:06;1.30;;;1.30;;
20844;SDS011;10583;49.084;8.646;2022-08-01T11:28:43;1.20;;;1.20;;
20844;SDS011;10583;49.084;8.646;2022-08-01T11:31:24;1.40;;;1.40;;
20844;SDS011;10583;49.084;8.646;2022-08-01T11:33:56;1.60;;;1.60;;
20844;SDS011;10583;49.084;8.646;2022-08-01T11:36:23;1.95;;;1.95;;
20844;SDS011;10583;49.084;8.646;2022-08-01T11:41:39;1.00;;;1.00;;
20844;SDS011;10583;49.084;8.646;2022-08-01T11:44:07;1.20;;;1.20;;
20844;SDS011;10583;49.084;8.646;2022-08-01T11:46:45;1.30;;;1.30;;
20844;SDS011;10583;49.084;8.646;2022-08-01T11:49:25;1.10;;;1.10;;
20844;SDS011;10583;49.084;8.646;2022-08-01T11:52:01;1.20;;;1.20;;
20844;SDS011;10583;49.084;8.646;2022-08-01T11:54:30;1.20;;;1.20;;
20844;SDS011;10583;49.084;8.646;2022-08-01T11:57:00;1.20;;;1.20;;
20844;SDS011;10583;49.084;8.646;2022-08-01T11:59:34;1.20;;;1.20;;
20844;SDS011;10583;49.084;8.646;2022-08-01T12:02:02;1.13;;;1.13;;
20844;SDS011;10583;49.084;8.646;2022-08-01T12:07:14;1.30;;;1.30;;
20844;SDS011;10583;49.084;8.646;2022-08-01T12:09:41;1.20;;;1.20;;
20844;SDS011;10583;49.084;8.646;2022-08-01T12:12:08;1.20;;;1.20;;
20844;SDS011;10583;49.084;8.646;2022-08-01T12:14:36;1.02;;;1.02;;
20844;SDS011;10583;49.084;8.646;2022-08-01T12:17:03;1.00;;;1.00;;
20844;SDS011;10583;49.084;8.646;2022-08-01T12:19:30;1.20;;;1.20;;
20844;SDS011;10583;49.084;8.646;2022-08-01T12:22:09;1.27;;;1.27;;
20844;SDS011;10583;49.084;8.646;2022-08-01T12:24:38;1.20;;;1.20;;
20844;SDS011;10583;49.084;8.646;2022-08-01T12:27:07;1.40;;;1.40;;
20844;SDS011;10583;49.084;8.646;2022-08-01T12:29:36;1.10;;;1.10;;
20844;SDS011;10583;49.084;8.646;2022-08-01T12:32:04;1.30;;;1.30;;
20844;SDS011;10583;49.084;8.646;2022-08-01T12:34:47;1.08;;;1.08;;
20844;SDS011;10583;49.084;8.646;2022-08-01T12:37:16;1.20;;;1.20;;
20844;SDS011;10583;49.084;8.646;2022-08-01T12:39:43;1.20;;;1.20;;
20844;SDS011;10583;49.084;8.646;2022-08-01T12:42:10;1.30;;;1.30;;
20844;SDS011;10583;49.084;8.646;2022-08-01T12:44:38;1.25;;;1.25;;
20844;SDS011;10583;49.084;8.646;2022-08-01T12:47:06;1.13;;;1.13;;
20844;SDS011;10583;49.084;8.646;2022-08-01T12:49:33;1.10;;;1.10;;
20844;SDS011;10583;49.084;8.646;2022-08-01T12:52:02;1.10;;;1.10;;
20844;SDS011;10583;49.084;8.646;2022-08-01T12:54:31;1.17;;;1.17;;
20844;SDS011;10583;49.084;8.646;2022-08-01T12:57:28;0.90;;;0.90;;
20844;SDS011;10583;49.084;8.646;2022-08-01T13:00:04;1.30;;;1.30;;
20844;SDS011;10583;49.084;8.646;2022-08-01T13:02:35;1.13;;;1.13;;
20844;SDS011;10583;49.084;8.646;2022-08-01T13:05:02;0.98;;;0.98;;
20844;SDS011;10583;49.084;8.646;2022-08-01T13:07:36;1.13;;;1.13;;
20844;SDS011;10583;49.084;8.646;2022-08-01T13:10:06;1.15;;;1.15;;
20844;SDS011;10583;49.084;8.646;2022-08-01T13:12:34;1.27;;;1.27;;
20844;SDS011;10583;49.084;8.646;2022-08-01T13:15:15;1.23;;;1.23;;
20844;SDS011;10583;49.084;8.646;2022-08-01T13:17:46;1.17;;;1.17;;
20844;SDS011;10583;49.084;8.646;2022-08-01T13:20:26;1.40;;;1.40;;
20844;SDS011;10583;49.084;8.646;2022-08-01T13:23:11;1.08;;;1.08;;
20844;SDS011;10583;49.084;8.646;2022-08-01T13:25:50;0.98;;;0.98;;
20844;SDS011;10583;49.084;8.646;2022-08-01T13:28:19;1.30;;;1.30;;
20844;SDS011;10583;49.084;8.646;2022-08-01T13:30:54;1.00;;;1.00;;
20844;SDS011;10583;49.084;8.646;2022-08-01T13:33:22;1.33;;;1.33;;
20844;SDS011;10583;49.084;8.646;2022-08-01T13:35:50;1.10;;;1.10;;
20844;SDS011;10583;49.084;8.646;2022-08-01T13:38:17;1.10;;;1.10;;
20844;SDS011;10583;49.084;8.646;2022-08-01T13:40:44;0.90;;;0.90;;
20844;SDS011;10583;49.084;8.646;2022-08-01T13:43:12;1.02;;;1.02;;
20844;SDS011;10583;49.084;8.646;2022-08-01T13:45:39;1.20;;;1.20;;
20844;SDS011;10583;49.084;8.646;2022-08-01T13:48:06;1.00;;;1.00;;
20844;SDS011;10583;49.084;8.646;2022-08-01T13:50:33;1.00;;;1.00;;
20844;SDS011;10583;49.084;8.646;2022-08-01T13:53:00;0.95;;;0.95;;
20844;SDS011;10583;49.084;8.646;2022-08-01T13:55:27;0.85;;;0.85;;
20844;SDS011;10583;49.084;8.646;2022-08-01T13:57:54;1.00;;;1.00;;
20844;SDS011;10583;49.084;8.646;2022-08-01T14:00:22;1.00;;;1.00;;
20844;SDS011;10583;49.084;8.646;2022-08-01T14:02:48;1.00;;;1.00;;
20844;SDS011;10583;49.084;8.646;2022-08-01T14:05:15;0.90;;;0.90;;
20844;SDS011;10583;49.084;8.646;2022-08-01T14:07:42;1.08;;;1.08;;
20844;SDS011;10583;49.084;8.646;2022-08-01T14:10:09;0.88;;;0.88;;
20844;SDS011;10583;49.084;8.646;2022-08-01T14:12:36;0.82;;;0.82;;
20844;SDS011;10583;49.084;8.646;2022-08-01T14:15:03;0.95;;;0.95;;
20844;SDS011;10583;49.084;8.646;2022-08-01T14:17:31;0.90;;;0.90;;
20844;SDS011;10583;49.084;8.646;2022-08-01T14:19:58;0.88;;;0.88;;
20844;SDS011;10583;49.084;8.646;2022-08-01T14:22:25;1.10;;;1.10;;
20844;SDS011;10583;49.084;8.646;2022-08-01T14:24:52;0.82;;;0.82;;
20844;SDS011;10583;49.084;8.646;2022-08-01T14:27:19;0.93;;;0.93;;
20844;SDS011;10583;49.084;8.646;2022-08-01T14:29:45;0.80;;;0.80;;
20844;SDS011;10583;49.084;8.646;2022-08-01T14:32:12;0.80;;;0.80;;
20844;SDS011;10583;49.084;8.646;2022-08-01T14:34:40;0.70;;;0.70;;
20844;SDS011;10583;49.084;8.646;2022-08-01T14:37:07;1.00;;;1.00;;
20844;SDS011;10583;49.084;8.646;2022-08-01T14:39:34;1.10;;;1.10;;
20844;SDS011;10583;49.084;8.646;2022-08-01T14:42:01;0.90;;;0.90;;
20844;SDS011;10583;49.084;8.646;2022-08-01T14:44:27;1.00;;;1.00;;
20844;SDS011;10583;49.084;8.646;2022-08-01T14:46:54;0.90;;;0.90;;
20844;SDS011;10583;49.084;8.646;2022-08-01T14:49:21;1.00;;;1.00;;
20844;SDS011;10583;49.084;8.646;2022-08-01T14:51:49;0.70;;;0.70;;
20844;SDS011;10583;49.084;8.646;2022-08-01T14:54:15;0.85;;;0.85;;
20844;SDS011;10583;49.084;8.646;2022-08-01T14:56:42;0.90;;;0.90;;
20844;SDS011;10583;49.084;8.646;2022-08-01T14:59:09;0.90;;;0.90;;
20844;SDS011;10583;49.084;8.646;2022-08-01T15:01:35;0.80;;;0.80;;
20844;SDS011;10583;49.084;8.646;2022-08-01T15:04:02;0.70;;;0.70;;
20844;SDS011;10583;49.084;8.646;2022-08-01T15:06:29;1.00;;;1.00;;
20844;SDS011;10583;49.084;8.646;2022-08-01T15:08:57;0.80;;;0.80;;